sensor_id;sensor_type;location;lat;lon;timestamp;P1;durP1;ratioP1;P2;durP2;ratioP2
76417;SDS011;65250;47.602;19.002;2023-09-30T00:01:15;7.53;;;4.50;;
76417;SDS011;65250;47.602;19.002;2023-09-30T00:03:42;6.93;;;4.85;;
76417;SDS011;65250;47.602;19.002;2023-09-30T00:06:09;7.55;;;4.40;;
76417;SDS011;65250;47.602;19.002;2023-09-30T00:08:37;8.25;;;4.38;;
76417;SDS011;65250;47.602;19.002;2023-09-30T00:11:06;6.20;;;4.63;;
76417;SDS011;65250;47.602;19.002;2023-09-30T00:13:33;6.53;;;4.23;;
76417;SDS011;65250;47.602;19.002;2023-09-30T00:16:00;8.77;;;4.53;;
76417;SDS011;65250;47.602;19.002;2023-09-30T00:18:27;8.70;;;4.80;;
76417;SDS011;65250;47.602;19.002;2023-09-30T00:20:54;10.90;;;5.07;;
76417;SDS011;65250;47.602;19.002;2023-09-30T00:23:21;8.82;;;4.30;;
76417;SDS011;65250;47.602;19.002;2023-09-30T00:25:48;6.93;;;4.77;;
76417;SDS011;65250;47.602;19.002;2023-09-30T00:28:18;6.43;;;4.20;;
76417;SDS011;65250;47.602;19.002;2023-09-30T00:30:45;7.25;;;4.88;;
76417;SDS011;65250;47.602;19.002;2023-09-30T00:33:14;8.32;;;4.30;;
76417;SDS011;65250;47.602;19.002;2023-09-30T00:35:41;6.78;;;5.55;;
76417;SDS011;65250;47.602;19.002;2023-09-30T00:38:08;7.50;;;4.47;;
76417;SDS011;65250;47.602;19.002;2023-09-30T00:40:36;6.70;;;4.35;;
76417;SDS011;65250;47.602;19.002;2023-09-30T00:43:03;7.60;;;4.72;;
76417;SDS011;65250;47.602;19.002;2023-09-30T00:45:30;7.88;;;4.57;;
76417;SDS011;65250;47.602;19.002;2023-09-30T00:47:57;9.38;;;4.15;;
76417;SDS011;65250;47.602;19.002;2023-09-30T00:50:24;6.63;;;4.70;;
76417;SDS011;65250;47.602;19.002;2023-09-30T00:52:53;6.50;;;4.38;;
76417;SDS011;65250;47.602;19.002;2023-09-30T00:55:20;7.80;;;4.20;;
76417;SDS011;65250;47.602;19.002;2023-09-30T00:57:48;10.85;;;4.65;;
76417;SDS011;65250;47.602;19.002;2023-09-30T01:00:15;6.70;;;4.80;;
76417;SDS011;65250;47.602;19.002;2023-09-30T01:02:42;5.93;;;4.27;;
76417;SDS011;65250;47.602;19.002;2023-09-30T01:05:11;7.97;;;4.60;;
76417;SDS011;65250;47.602;19.002;2023-09-30T01:07:38;7.90;;;5.22;;
76417;SDS011;65250;47.602;19.002;2023-09-30T01:10:05;7.95;;;4.70;;
76417;SDS011;65250;47.602;19.002;2023-09-30T01:12:33;8.73;;;4.97;;
76417;SDS011;65250;47.602;19.002;2023-09-30T01:15:00;7.80;;;4.50;;
76417;SDS011;65250;47.602;19.002;2023-09-30T01:17:27;7.82;;;4.40;;
76417;SDS011;65250;47.602;19.002;2023-09-30T01:19:57;6.43;;;4.85;;
76417;SDS011;65250;47.602;19.002;2023-09-30T01:22:25;5.55;;;4.25;;
76417;SDS011;65250;47.602;19.002;2023-09-30T01:24:54;7.50;;;4.82;;
76417;SDS011;65250;47.602;19.002;2023-09-30T01:27:21;6.17;;;4.70;;
76417;SDS011;65250;47.602;19.002;2023-09-30T01:29:48;6.70;;;4.65;;
76417;SDS011;65250;47.602;19.002;2023-09-30T01:32:16;6.32;;;4.55;;
76417;SDS011;65250;47.602;19.002;2023-09-30T01:34:43;7.32;;;4.85;;
76417;SDS011;65250;47.602;19.002;2023-09-30T01:37:10;8.48;;;4.25;;
76417;SDS011;65250;47.602;19.002;2023-09-30T01:39:37;7.13;;;4.63;;
76417;SDS011;65250;47.602;19.002;2023-09-30T01:42:04;9.55;;;4.85;;
76417;SDS011;65250;47.602;19.002;2023-09-30T01:44:32;7.82;;;4.50;;
76417;SDS011;65250;47.602;19.002;2023-09-30T01:46:59;6.82;;;4.43;;
76417;SDS011;65250;47.602;19.002;2023-09-30T01:49:26;6.13;;;4.22;;
76417;SDS011;65250;47.602;19.002;2023-09-30T01:51:53;5.13;;;4.10;;
76417;SDS011;65250;47.602;19.002;2023-09-30T01:54:21;8.45;;;4.63;;
76417;SDS011;65250;47.602;19.002;2023-09-30T01:56:48;8.15;;;4.22;;
76417;SDS011;65250;47.602;19.002;2023-09-30T01:59:16;8.10;;;4.28;;
76417;SDS011;65250;47.602;19.002;2023-09-30T02:01:43;5.05;;;4.07;;
76417;SDS011;65250;47.602;19.002;2023-09-30T02:04:12;5.03;;;3.67;;
76417;SDS011;65250;47.602;19.002;2023-09-30T02:06:42;8.85;;;4.55;;
76417;SDS011;65250;47.602;19.002;2023-09-30T02:09:09;5.85;;;4.22;;
76417;SDS011;65250;47.602;19.002;2023-09-30T02:11:36;6.13;;;4.55;;
76417;SDS011;65250;47.602;19.002;2023-09-30T02:14:04;7.90;;;4.13;;
76417;SDS011;65250;47.602;19.002;2023-09-30T02:16:33;9.20;;;4.57;;
76417;SDS011;65250;47.602;19.002;2023-09-30T02:19:00;5.55;;;3.95;;
76417;SDS011;65250;47.602;19.002;2023-09-30T02:21:27;7.45;;;3.92;;
76417;SDS011;65250;47.602;19.002;2023-09-30T02:23:55;5.70;;;4.22;;
76417;SDS011;65250;47.602;19.002;2023-09-30T02:26:22;6.63;;;4.10;;
76417;SDS011;65250;47.602;19.002;2023-09-30T02:28:52;6.67;;;4.20;;
76417;SDS011;65250;47.602;19.002;2023-09-30T02:31:20;6.28;;;4.00;;
76417;SDS011;65250;47.602;19.002;2023-09-30T02:33:47;6.57;;;4.50;;
76417;SDS011;65250;47.602;19.002;2023-09-30T02:36:14;6.43;;;3.97;;
76417;SDS011;65250;47.602;19.002;2023-09-30T02:38:42;6.60;;;4.10;;
76417;SDS011;65250;47.602;19.002;2023-09-30T02:41:10;7.43;;;4.10;;
76417;SDS011;65250;47.602;19.002;2023-09-30T02:43:37;7.40;;;3.90;;
76417;SDS011;65250;47.602;19.002;2023-09-30T02:46:05;7.20;;;4.60;;
76417;SDS011;65250;47.602;19.002;2023-09-30T02:48:32;7.28;;;4.43;;
76417;SDS011;65250;47.602;19.002;2023-09-30T02:50:59;5.57;;;3.90;;
76417;SDS011;65250;47.602;19.002;2023-09-30T02:53:26;9.03;;;4.03;;
76417;SDS011;65250;47.602;19.002;2023-09-30T02:55:53;5.55;;;4.20;;
76417;SDS011;65250;47.602;19.002;2023-09-30T02:58:24;5.97;;;4.32;;
76417;SDS011;65250;47.602;19.002;2023-09-30T03:00:51;8.07;;;4.50;;
76417;SDS011;65250;47.602;19.002;2023-09-30T03:03:18;7.10;;;3.80;;
76417;SDS011;65250;47.602;19.002;2023-09-30T03:05:45;5.93;;;4.30;;
76417;SDS011;65250;47.602;19.002;2023-09-30T03:08:13;8.88;;;4.68;;
76417;SDS011;65250;47.602;19.002;2023-09-30T03:10:40;7.13;;;4.60;;
76417;SDS011;65250;47.602;19.002;2023-09-30T03:13:08;7.20;;;4.30;;
76417;SDS011;65250;47.602;19.002;2023-09-30T03:15:36;8.63;;;4.50;;
76417;SDS011;65250;47.602;19.002;2023-09-30T03:18:03;7.30;;;4.50;;
76417;SDS011;65250;47.602;19.002;2023-09-30T03:20:31;6.72;;;4.22;;
76417;SDS011;65250;47.602;19.002;2023-09-30T03:22:58;7.43;;;4.70;;
76417;SDS011;65250;47.602;19.002;2023-09-30T03:25:26;6.45;;;4.53;;
76417;SDS011;65250;47.602;19.002;2023-09-30T03:27:53;6.82;;;4.70;;
76417;SDS011;65250;47.602;19.002;2023-09-30T03:30:20;6.60;;;4.60;;
76417;SDS011;65250;47.602;19.002;2023-09-30T03:32:48;5.63;;;4.40;;
76417;SDS011;65250;47.602;19.002;2023-09-30T03:35:15;9.20;;;4.40;;
76417;SDS011;65250;47.602;19.002;2023-09-30T03:37:45;9.23;;;4.40;;
76417;SDS011;65250;47.602;19.002;2023-09-30T03:40:14;7.70;;;4.32;;
76417;SDS011;65250;47.602;19.002;2023-09-30T03:42:46;7.40;;;4.07;;
76417;SDS011;65250;47.602;19.002;2023-09-30T03:45:16;5.10;;;3.75;;
76417;SDS011;65250;47.602;19.002;2023-09-30T03:47:44;8.55;;;4.63;;
76417;SDS011;65250;47.602;19.002;2023-09-30T03:50:12;5.82;;;4.28;;
76417;SDS011;65250;47.602;19.002;2023-09-30T03:52:43;6.35;;;4.28;;
76417;SDS011;65250;47.602;19.002;2023-09-30T03:55:15;5.87;;;4.17;;
76417;SDS011;65250;47.602;19.002;2023-09-30T03:57:45;7.10;;;4.13;;
76417;SDS011;65250;47.602;19.002;2023-09-30T04:00:16;6.07;;;4.55;;
76417;SDS011;65250;47.602;19.002;2023-09-30T04:02:53;6.15;;;4.10;;
76417;SDS011;65250;47.602;19.002;2023-09-30T04:05:25;6.00;;;4.15;;
76417;SDS011;65250;47.602;19.002;2023-09-30T04:07:56;7.23;;;4.73;;
76417;SDS011;65250;47.602;19.002;2023-09-30T04:10:23;7.93;;;4.82;;
76417;SDS011;65250;47.602;19.002;2023-09-30T04:12:51;5.82;;;4.47;;
76417;SDS011;65250;47.602;19.002;2023-09-30T04:15:19;6.03;;;4.43;;
76417;SDS011;65250;47.602;19.002;2023-09-30T04:17:47;6.32;;;4.30;;
76417;SDS011;65250;47.602;19.002;2023-09-30T04:20:15;7.47;;;4.60;;
76417;SDS011;65250;47.602;19.002;2023-09-30T04:22:50;6.32;;;5.05;;
76417;SDS011;65250;47.602;19.002;2023-09-30T04:25:17;7.22;;;4.72;;
76417;SDS011;65250;47.602;19.002;2023-09-30T04:27:46;7.75;;;4.50;;
76417;SDS011;65250;47.602;19.002;2023-09-30T04:30:18;10.05;;;4.70;;
76417;SDS011;65250;47.602;19.002;2023-09-30T04:32:46;6.70;;;4.50;;
76417;SDS011;65250;47.602;19.002;2023-09-30T04:35:12;8.38;;;4.57;;
76417;SDS011;65250;47.602;19.002;2023-09-30T04:37:40;5.60;;;4.50;;
76417;SDS011;65250;47.602;19.002;2023-09-30T04:40:07;7.32;;;4.90;;
76417;SDS011;65250;47.602;19.002;2023-09-30T04:43:01;7.03;;;4.43;;
76417;SDS011;65250;47.602;19.002;2023-09-30T04:45:28;7.50;;;4.80;;
76417;SDS011;65250;47.602;19.002;2023-09-30T04:47:56;6.38;;;4.47;;
76417;SDS011;65250;47.602;19.002;2023-09-30T04:50:23;7.50;;;4.72;;
76417;SDS011;65250;47.602;19.002;2023-09-30T04:52:50;8.77;;;4.85;;
76417;SDS011;65250;47.602;19.002;2023-09-30T04:55:18;6.68;;;4.30;;
76417;SDS011;65250;47.602;19.002;2023-09-30T04:57:45;6.50;;;4.13;;
76417;SDS011;65250;47.602;19.002;2023-09-30T05:00:14;6.75;;;4.70;;
76417;SDS011;65250;47.602;19.002;2023-09-30T05:02:44;7.82;;;4.75;;
76417;SDS011;65250;47.602;19.002;2023-09-30T05:05:12;7.47;;;4.68;;
76417;SDS011;65250;47.602;19.002;2023-09-30T05:07:40;10.45;;;4.80;;
76417;SDS011;65250;47.602;19.002;2023-09-30T05:10:07;9.63;;;5.10;;
76417;SDS011;65250;47.602;19.002;2023-09-30T05:12:40;7.65;;;4.93;;
76417;SDS011;65250;47.602;19.002;2023-09-30T05:15:13;9.40;;;4.75;;
76417;SDS011;65250;47.602;19.002;2023-09-30T05:17:44;7.72;;;4.90;;
76417;SDS011;65250;47.602;19.002;2023-09-30T05:20:12;7.10;;;4.85;;
76417;SDS011;65250;47.602;19.002;2023-09-30T05:22:39;8.50;;;4.37;;
76417;SDS011;65250;47.602;19.002;2023-09-30T05:25:12;8.48;;;5.13;;
76417;SDS011;65250;47.602;19.002;2023-09-30T05:27:43;7.05;;;4.30;;
76417;SDS011;65250;47.602;19.002;2023-09-30T05:30:10;19.25;;;5.65;;
76417;SDS011;65250;47.602;19.002;2023-09-30T05:32:37;13.45;;;4.85;;
76417;SDS011;65250;47.602;19.002;2023-09-30T05:35:06;19.47;;;5.40;;
76417;SDS011;65250;47.602;19.002;2023-09-30T05:37:40;17.60;;;5.20;;
76417;SDS011;65250;47.602;19.002;2023-09-30T05:40:07;10.95;;;5.68;;
76417;SDS011;65250;47.602;19.002;2023-09-30T05:42:49;18.77;;;5.22;;
76417;SDS011;65250;47.602;19.002;2023-09-30T05:45:17;18.52;;;6.22;;
76417;SDS011;65250;47.602;19.002;2023-09-30T05:47:45;9.37;;;5.27;;
76417;SDS011;65250;47.602;19.002;2023-09-30T05:50:14;10.88;;;5.53;;
76417;SDS011;65250;47.602;19.002;2023-09-30T05:52:43;9.80;;;5.45;;
76417;SDS011;65250;47.602;19.002;2023-09-30T05:55:11;9.55;;;5.30;;
76417;SDS011;65250;47.602;19.002;2023-09-30T05:57:38;9.68;;;5.32;;
76417;SDS011;65250;47.602;19.002;2023-09-30T06:00:05;8.13;;;5.03;;
76417;SDS011;65250;47.602;19.002;2023-09-30T06:02:53;9.40;;;4.95;;
76417;SDS011;65250;47.602;19.002;2023-09-30T06:05:20;13.18;;;5.72;;
76417;SDS011;65250;47.602;19.002;2023-09-30T06:07:49;8.07;;;5.07;;
76417;SDS011;65250;47.602;19.002;2023-09-30T06:10:16;7.30;;;5.25;;
76417;SDS011;65250;47.602;19.002;2023-09-30T06:12:46;10.07;;;5.63;;
76417;SDS011;65250;47.602;19.002;2023-09-30T06:15:16;12.00;;;5.03;;
76417;SDS011;65250;47.602;19.002;2023-09-30T06:17:49;8.07;;;4.75;;
76417;SDS011;65250;47.602;19.002;2023-09-30T06:20:16;8.98;;;5.40;;
76417;SDS011;65250;47.602;19.002;2023-09-30T06:22:44;6.22;;;5.00;;
76417;SDS011;65250;47.602;19.002;2023-09-30T06:25:12;13.90;;;5.80;;
76417;SDS011;65250;47.602;19.002;2023-09-30T06:27:40;9.32;;;5.40;;
76417;SDS011;65250;47.602;19.002;2023-09-30T06:30:07;10.00;;;5.40;;
76417;SDS011;65250;47.602;19.002;2023-09-30T06:32:35;8.10;;;5.85;;
76417;SDS011;65250;47.602;19.002;2023-09-30T06:35:03;8.23;;;4.57;;
76417;SDS011;65250;47.602;19.002;2023-09-30T06:37:30;6.90;;;4.70;;
76417;SDS011;65250;47.602;19.002;2023-09-30T06:39:57;8.02;;;4.90;;
76417;SDS011;65250;47.602;19.002;2023-09-30T06:42:24;9.68;;;5.45;;
76417;SDS011;65250;47.602;19.002;2023-09-30T06:44:52;8.15;;;5.38;;
76417;SDS011;65250;47.602;19.002;2023-09-30T06:47:19;10.32;;;5.85;;
76417;SDS011;65250;47.602;19.002;2023-09-30T06:49:47;8.07;;;5.43;;
76417;SDS011;65250;47.602;19.002;2023-09-30T06:52:14;10.90;;;4.97;;
76417;SDS011;65250;47.602;19.002;2023-09-30T06:54:41;8.85;;;4.93;;
76417;SDS011;65250;47.602;19.002;2023-09-30T06:57:08;10.88;;;5.05;;
76417;SDS011;65250;47.602;19.002;2023-09-30T06:59:36;10.13;;;5.07;;
76417;SDS011;65250;47.602;19.002;2023-09-30T07:02:04;7.33;;;4.87;;
76417;SDS011;65250;47.602;19.002;2023-09-30T07:04:31;6.50;;;5.10;;
76417;SDS011;65250;47.602;19.002;2023-09-30T07:06:59;8.38;;;5.10;;
76417;SDS011;65250;47.602;19.002;2023-09-30T07:09:25;8.15;;;5.20;;
76417;SDS011;65250;47.602;19.002;2023-09-30T07:11:53;11.20;;;5.32;;
76417;SDS011;65250;47.602;19.002;2023-09-30T07:14:20;9.80;;;4.73;;
76417;SDS011;65250;47.602;19.002;2023-09-30T07:16:47;7.45;;;5.30;;
76417;SDS011;65250;47.602;19.002;2023-09-30T07:19:14;8.85;;;5.15;;
76417;SDS011;65250;47.602;19.002;2023-09-30T07:21:41;11.45;;;5.10;;
76417;SDS011;65250;47.602;19.002;2023-09-30T07:24:08;7.53;;;5.00;;
76417;SDS011;65250;47.602;19.002;2023-09-30T07:26:36;11.87;;;5.50;;
76417;SDS011;65250;47.602;19.002;2023-09-30T07:29:03;9.68;;;5.20;;
76417;SDS011;65250;47.602;19.002;2023-09-30T07:31:37;7.15;;;5.03;;
76417;SDS011;65250;47.602;19.002;2023-09-30T07:34:04;10.57;;;4.85;;
76417;SDS011;65250;47.602;19.002;2023-09-30T07:36:31;6.15;;;4.82;;
76417;SDS011;65250;47.602;19.002;2023-09-30T07:38:58;6.70;;;4.67;;
76417;SDS011;65250;47.602;19.002;2023-09-30T07:41:27;13.90;;;5.72;;
76417;SDS011;65250;47.602;19.002;2023-09-30T07:44:01;7.07;;;4.75;;
76417;SDS011;65250;47.602;19.002;2023-09-30T07:46:29;9.88;;;4.85;;
76417;SDS011;65250;47.602;19.002;2023-09-30T07:48:57;6.15;;;4.63;;
76417;SDS011;65250;47.602;19.002;2023-09-30T07:51:26;5.60;;;4.77;;
76417;SDS011;65250;47.602;19.002;2023-09-30T07:53:53;7.30;;;4.97;;
76417;SDS011;65250;47.602;19.002;2023-09-30T07:56:20;6.22;;;4.45;;
76417;SDS011;65250;47.602;19.002;2023-09-30T07:58:48;6.82;;;4.78;;
76417;SDS011;65250;47.602;19.002;2023-09-30T08:01:15;7.95;;;5.15;;
76417;SDS011;65250;47.602;19.002;2023-09-30T08:03:43;7.53;;;4.63;;
76417;SDS011;65250;47.602;19.002;2023-09-30T08:06:10;6.60;;;4.40;;
76417;SDS011;65250;47.602;19.002;2023-09-30T08:08:37;6.05;;;3.95;;
76417;SDS011;65250;47.602;19.002;2023-09-30T08:11:04;9.50;;;4.85;;
76417;SDS011;65250;47.602;19.002;2023-09-30T08:13:32;6.30;;;4.50;;
76417;SDS011;65250;47.602;19.002;2023-09-30T08:15:59;6.90;;;3.90;;
76417;SDS011;65250;47.602;19.002;2023-09-30T08:18:26;5.88;;;3.70;;
76417;SDS011;65250;47.602;19.002;2023-09-30T08:20:53;6.72;;;4.07;;
76417;SDS011;65250;47.602;19.002;2023-09-30T08:23:20;6.40;;;4.40;;
76417;SDS011;65250;47.602;19.002;2023-09-30T08:25:47;4.65;;;4.05;;
76417;SDS011;65250;47.602;19.002;2023-09-30T08:28:14;4.27;;;3.87;;
76417;SDS011;65250;47.602;19.002;2023-09-30T08:30:41;6.53;;;3.72;;
76417;SDS011;65250;47.602;19.002;2023-09-30T08:33:08;6.60;;;3.70;;
76417;SDS011;65250;47.602;19.002;2023-09-30T08:35:38;9.43;;;4.75;;
76417;SDS011;65250;47.602;19.002;2023-09-30T08:38:05;8.73;;;5.47;;
76417;SDS011;65250;47.602;19.002;2023-09-30T08:40:32;7.80;;;4.50;;
76417;SDS011;65250;47.602;19.002;2023-09-30T08:42:59;5.10;;;4.00;;
76417;SDS011;65250;47.602;19.002;2023-09-30T08:45:27;6.57;;;4.22;;
76417;SDS011;65250;47.602;19.002;2023-09-30T08:47:55;7.03;;;4.03;;
76417;SDS011;65250;47.602;19.002;2023-09-30T08:50:22;5.22;;;4.72;;
76417;SDS011;65250;47.602;19.002;2023-09-30T08:52:50;8.97;;;4.23;;
76417;SDS011;65250;47.602;19.002;2023-09-30T08:55:17;9.90;;;4.40;;
76417;SDS011;65250;47.602;19.002;2023-09-30T08:57:44;8.18;;;4.28;;
76417;SDS011;65250;47.602;19.002;2023-09-30T09:00:12;5.93;;;4.53;;
76417;SDS011;65250;47.602;19.002;2023-09-30T09:02:40;4.88;;;4.38;;
76417;SDS011;65250;47.602;19.002;2023-09-30T09:05:07;8.33;;;4.17;;
76417;SDS011;65250;47.602;19.002;2023-09-30T09:07:36;5.43;;;4.15;;
76417;SDS011;65250;47.602;19.002;2023-09-30T09:10:06;6.88;;;4.40;;
76417;SDS011;65250;47.602;19.002;2023-09-30T09:12:36;8.20;;;4.20;;
76417;SDS011;65250;47.602;19.002;2023-09-30T09:15:06;7.78;;;4.50;;
76417;SDS011;65250;47.602;19.002;2023-09-30T09:17:47;8.73;;;4.27;;
76417;SDS011;65250;47.602;19.002;2023-09-30T09:20:17;6.30;;;3.70;;
76417;SDS011;65250;47.602;19.002;2023-09-30T09:22:49;5.43;;;4.15;;
76417;SDS011;65250;47.602;19.002;2023-09-30T09:25:19;5.35;;;4.07;;
76417;SDS011;65250;47.602;19.002;2023-09-30T09:27:50;5.00;;;4.25;;
76417;SDS011;65250;47.602;19.002;2023-09-30T09:30:19;8.40;;;4.40;;
76417;SDS011;65250;47.602;19.002;2023-09-30T09:33:00;6.82;;;4.47;;
76417;SDS011;65250;47.602;19.002;2023-09-30T09:35:28;7.30;;;4.63;;
76417;SDS011;65250;47.602;19.002;2023-09-30T09:38:03;5.82;;;4.38;;
76417;SDS011;65250;47.602;19.002;2023-09-30T09:40:40;8.30;;;4.45;;
76417;SDS011;65250;47.602;19.002;2023-09-30T09:43:09;8.47;;;4.93;;
76417;SDS011;65250;47.602;19.002;2023-09-30T09:45:37;7.22;;;4.60;;
76417;SDS011;65250;47.602;19.002;2023-09-30T09:48:05;9.65;;;5.20;;
76417;SDS011;65250;47.602;19.002;2023-09-30T09:50:33;4.97;;;4.43;;
76417;SDS011;65250;47.602;19.002;2023-09-30T09:53:02;7.53;;;4.55;;
76417;SDS011;65250;47.602;19.002;2023-09-30T09:55:31;7.83;;;4.57;;
76417;SDS011;65250;47.602;19.002;2023-09-30T09:57:59;9.07;;;4.45;;
76417;SDS011;65250;47.602;19.002;2023-09-30T10:00:29;6.40;;;5.13;;
76417;SDS011;65250;47.602;19.002;2023-09-30T10:02:57;5.85;;;4.75;;
76417;SDS011;65250;47.602;19.002;2023-09-30T10:05:25;7.78;;;4.88;;
76417;SDS011;65250;47.602;19.002;2023-09-30T10:07:55;9.17;;;4.60;;
76417;SDS011;65250;47.602;19.002;2023-09-30T10:10:24;8.43;;;5.40;;
76417;SDS011;65250;47.602;19.002;2023-09-30T10:12:51;6.85;;;4.55;;
76417;SDS011;65250;47.602;19.002;2023-09-30T10:18:10;5.90;;;4.68;;
76417;SDS011;65250;47.602;19.002;2023-09-30T10:20:42;6.17;;;4.87;;
76417;SDS011;65250;47.602;19.002;2023-09-30T10:23:19;9.18;;;4.80;;
76417;SDS011;65250;47.602;19.002;2023-09-30T10:25:46;8.18;;;5.15;;
76417;SDS011;65250;47.602;19.002;2023-09-30T10:28:32;8.48;;;5.05;;
76417;SDS011;65250;47.602;19.002;2023-09-30T10:31:16;6.65;;;5.13;;
76417;SDS011;65250;47.602;19.002;2023-09-30T10:36:31;8.40;;;4.60;;
76417;SDS011;65250;47.602;19.002;2023-09-30T10:38:59;7.40;;;4.78;;
76417;SDS011;65250;47.602;19.002;2023-09-30T10:46:49;10.10;;;5.00;;
76417;SDS011;65250;47.602;19.002;2023-09-30T10:49:17;7.72;;;5.38;;
76417;SDS011;65250;47.602;19.002;2023-09-30T10:51:44;7.35;;;5.40;;
76417;SDS011;65250;47.602;19.002;2023-09-30T10:54:13;9.98;;;5.63;;
76417;SDS011;65250;47.602;19.002;2023-09-30T10:56:40;13.35;;;6.50;;
76417;SDS011;65250;47.602;19.002;2023-09-30T10:59:07;11.63;;;5.73;;
76417;SDS011;65250;47.602;19.002;2023-09-30T11:01:36;7.63;;;5.63;;
76417;SDS011;65250;47.602;19.002;2023-09-30T11:04:03;9.93;;;5.90;;
76417;SDS011;65250;47.602;19.002;2023-09-30T11:06:32;10.38;;;5.82;;
76417;SDS011;65250;47.602;19.002;2023-09-30T11:09:00;6.88;;;5.70;;
76417;SDS011;65250;47.602;19.002;2023-09-30T11:11:35;9.20;;;5.47;;
76417;SDS011;65250;47.602;19.002;2023-09-30T11:14:15;10.68;;;6.10;;
76417;SDS011;65250;47.602;19.002;2023-09-30T11:16:43;10.10;;;6.18;;
76417;SDS011;65250;47.602;19.002;2023-09-30T11:19:11;6.22;;;5.57;;
76417;SDS011;65250;47.602;19.002;2023-09-30T11:21:39;10.05;;;6.38;;
76417;SDS011;65250;47.602;19.002;2023-09-30T11:24:07;8.30;;;6.30;;
76417;SDS011;65250;47.602;19.002;2023-09-30T11:26:34;7.68;;;6.15;;
76417;SDS011;65250;47.602;19.002;2023-09-30T11:29:06;8.88;;;6.68;;
76417;SDS011;65250;47.602;19.002;2023-09-30T11:31:36;9.32;;;6.40;;
76417;SDS011;65250;47.602;19.002;2023-09-30T11:34:07;8.95;;;6.35;;
76417;SDS011;65250;47.602;19.002;2023-09-30T11:36:35;9.60;;;6.07;;
76417;SDS011;65250;47.602;19.002;2023-09-30T11:39:03;9.02;;;5.88;;
76417;SDS011;65250;47.602;19.002;2023-09-30T11:41:32;8.57;;;6.80;;
76417;SDS011;65250;47.602;19.002;2023-09-30T11:44:04;9.18;;;6.00;;
76417;SDS011;65250;47.602;19.002;2023-09-30T11:46:48;8.35;;;6.57;;
76417;SDS011;65250;47.602;19.002;2023-09-30T11:49:26;9.13;;;5.77;;
76417;SDS011;65250;47.602;19.002;2023-09-30T11:51:58;12.45;;;6.35;;
76417;SDS011;65250;47.602;19.002;2023-09-30T11:54:33;10.38;;;6.72;;
76417;SDS011;65250;47.602;19.002;2023-09-30T11:57:01;14.80;;;6.88;;
76417;SDS011;65250;47.602;19.002;2023-09-30T11:59:29;10.88;;;6.47;;
76417;SDS011;65250;47.602;19.002;2023-09-30T12:01:56;10.23;;;6.23;;
76417;SDS011;65250;47.602;19.002;2023-09-30T12:04:39;13.25;;;6.90;;
76417;SDS011;65250;47.602;19.002;2023-09-30T12:07:06;9.93;;;6.43;;
76417;SDS011;65250;47.602;19.002;2023-09-30T12:09:36;10.00;;;6.30;;
76417;SDS011;65250;47.602;19.002;2023-09-30T12:12:08;8.60;;;6.65;;
76417;SDS011;65250;47.602;19.002;2023-09-30T12:14:39;8.43;;;6.50;;
76417;SDS011;65250;47.602;19.002;2023-09-30T12:17:07;9.52;;;6.40;;
76417;SDS011;65250;47.602;19.002;2023-09-30T12:19:38;9.18;;;6.30;;
76417;SDS011;65250;47.602;19.002;2023-09-30T12:22:05;12.50;;;6.18;;
76417;SDS011;65250;47.602;19.002;2023-09-30T12:24:33;10.05;;;6.63;;
76417;SDS011;65250;47.602;19.002;2023-09-30T12:27:00;11.77;;;7.43;;
76417;SDS011;65250;47.602;19.002;2023-09-30T12:29:27;7.72;;;6.50;;
76417;SDS011;65250;47.602;19.002;2023-09-30T12:31:54;11.27;;;6.53;;
76417;SDS011;65250;47.602;19.002;2023-09-30T12:34:22;8.32;;;6.03;;
76417;SDS011;65250;47.602;19.002;2023-09-30T12:36:54;10.40;;;6.53;;
76417;SDS011;65250;47.602;19.002;2023-09-30T12:39:25;17.93;;;6.83;;
76417;SDS011;65250;47.602;19.002;2023-09-30T12:41:53;9.90;;;6.75;;
76417;SDS011;65250;47.602;19.002;2023-09-30T12:44:20;10.90;;;6.78;;
76417;SDS011;65250;47.602;19.002;2023-09-30T12:46:49;14.38;;;6.72;;
76417;SDS011;65250;47.602;19.002;2023-09-30T12:49:16;9.18;;;6.65;;
76417;SDS011;65250;47.602;19.002;2023-09-30T12:51:44;13.63;;;6.97;;
76417;SDS011;65250;47.602;19.002;2023-09-30T12:54:11;10.30;;;6.55;;
76417;SDS011;65250;47.602;19.002;2023-09-30T12:56:40;12.40;;;6.35;;
76417;SDS011;65250;47.602;19.002;2023-09-30T12:59:06;10.38;;;6.22;;
76417;SDS011;65250;47.602;19.002;2023-09-30T13:01:33;10.70;;;5.80;;
76417;SDS011;65250;47.602;19.002;2023-09-30T13:04:02;9.10;;;6.67;;
76417;SDS011;65250;47.602;19.002;2023-09-30T13:06:29;11.13;;;6.60;;
76417;SDS011;65250;47.602;19.002;2023-09-30T13:08:59;12.02;;;6.38;;
76417;SDS011;65250;47.602;19.002;2023-09-30T13:11:27;10.35;;;6.18;;
76417;SDS011;65250;47.602;19.002;2023-09-30T13:13:54;10.23;;;6.63;;
76417;SDS011;65250;47.602;19.002;2023-09-30T13:16:21;10.90;;;6.37;;
76417;SDS011;65250;47.602;19.002;2023-09-30T13:18:49;10.30;;;6.68;;
76417;SDS011;65250;47.602;19.002;2023-09-30T13:21:19;11.10;;;6.13;;
76417;SDS011;65250;47.602;19.002;2023-09-30T13:23:46;11.52;;;6.55;;
76417;SDS011;65250;47.602;19.002;2023-09-30T13:26:13;9.73;;;6.13;;
76417;SDS011;65250;47.602;19.002;2023-09-30T13:28:40;10.60;;;6.67;;
76417;SDS011;65250;47.602;19.002;2023-09-30T13:31:07;10.40;;;5.70;;
76417;SDS011;65250;47.602;19.002;2023-09-30T13:33:34;9.77;;;6.38;;
76417;SDS011;65250;47.602;19.002;2023-09-30T13:36:01;9.55;;;6.40;;
76417;SDS011;65250;47.602;19.002;2023-09-30T13:38:29;9.82;;;6.75;;
76417;SDS011;65250;47.602;19.002;2023-09-30T13:40:56;10.67;;;6.23;;
76417;SDS011;65250;47.602;19.002;2023-09-30T13:43:23;7.75;;;5.80;;
76417;SDS011;65250;47.602;19.002;2023-09-30T13:45:50;9.30;;;6.53;;
76417;SDS011;65250;47.602;19.002;2023-09-30T13:48:17;7.35;;;5.78;;
76417;SDS011;65250;47.602;19.002;2023-09-30T13:50:44;6.85;;;6.07;;
76417;SDS011;65250;47.602;19.002;2023-09-30T13:53:11;8.13;;;6.10;;
76417;SDS011;65250;47.602;19.002;2023-09-30T13:55:38;10.10;;;6.10;;
76417;SDS011;65250;47.602;19.002;2023-09-30T13:58:06;9.82;;;6.15;;
76417;SDS011;65250;47.602;19.002;2023-09-30T14:00:33;11.02;;;6.10;;
76417;SDS011;65250;47.602;19.002;2023-09-30T14:03:00;7.75;;;6.28;;
76417;SDS011;65250;47.602;19.002;2023-09-30T14:05:27;9.53;;;5.67;;
76417;SDS011;65250;47.602;19.002;2023-09-30T14:07:55;10.38;;;6.38;;
76417;SDS011;65250;47.602;19.002;2023-09-30T14:10:22;8.05;;;5.93;;
76417;SDS011;65250;47.602;19.002;2023-09-30T14:12:50;8.75;;;6.47;;
76417;SDS011;65250;47.602;19.002;2023-09-30T14:15:16;9.52;;;6.57;;
76417;SDS011;65250;47.602;19.002;2023-09-30T14:17:44;12.87;;;6.57;;
76417;SDS011;65250;47.602;19.002;2023-09-30T14:20:11;9.00;;;6.45;;
76417;SDS011;65250;47.602;19.002;2023-09-30T14:22:39;9.25;;;6.38;;
76417;SDS011;65250;47.602;19.002;2023-09-30T14:25:06;9.57;;;6.53;;
76417;SDS011;65250;47.602;19.002;2023-09-30T14:27:34;9.75;;;6.30;;
76417;SDS011;65250;47.602;19.002;2023-09-30T14:30:01;9.97;;;6.43;;
76417;SDS011;65250;47.602;19.002;2023-09-30T14:32:34;8.00;;;6.18;;
76417;SDS011;65250;47.602;19.002;2023-09-30T14:35:01;9.02;;;6.85;;
76417;SDS011;65250;47.602;19.002;2023-09-30T14:37:28;8.38;;;6.53;;
76417;SDS011;65250;47.602;19.002;2023-09-30T14:39:56;10.45;;;6.03;;
76417;SDS011;65250;47.602;19.002;2023-09-30T14:42:23;8.30;;;5.80;;
76417;SDS011;65250;47.602;19.002;2023-09-30T14:44:50;11.88;;;6.68;;
76417;SDS011;65250;47.602;19.002;2023-09-30T14:47:17;8.75;;;6.38;;
76417;SDS011;65250;47.602;19.002;2023-09-30T14:49:45;7.15;;;5.93;;